Time;durP1;ratioP1;P1;durP2;ratioP2;P2;SDS_P1;SDS_P2;PMS_P1;PMS_P2;Temp;Humidity;BMP_temperature;BMP_pressure;BME280_temperature;BME280_humidity;BME280_pressure;Samples;Min_cycle;Max_cycle;Signal;HPM_P1;HPM_P2
2021/12/11 00:01:21;;;;;;;0.10;0.10;;;;;;;;;;4963096;28;20077;-93
2021/12/11 00:03:49;;;;;;;0.10;0.10;;;;;;;;;;4994780;28;20552;-94
2021/12/11 00:06:17;;;;;;;0.10;0.10;;;;;;;;;;4979893;28;20132;-94
2021/12/11 00:08:43;;;;;;;0.10;0.10;;;;;;;;;;4962520;28;20423;-93
2021/12/11 00:11:09;;;;;;;0.00;0.00;;;;;;;;;;4994589;28;20038;-94
2021/12/11 00:13:38;;;;;;;0.10;0.10;;;;;;;;;;4994635;28;20053;-93
2021/12/11 00:16:05;;;;;;;0.10;0.10;;;;;;;;;;4978038;28;20049;-93
2021/12/11 00:18:31;;;;;;;0.10;0.10;;;;;;;;;;4978318;28;20125;-94
2021/12/11 00:20:58;;;;;;;0.10;0.10;;;;;;;;;;4962312;28;20482;-93
2021/12/11 00:23:27;;;;;;;0.10;0.10;;;;;;;;;;4961858;28;20101;-93
2021/12/11 00:25:53;;;;;;;0.10;0.10;;;;;;;;;;4994015;28;20081;-94
2021/12/11 00:28:19;;;;;;;0.10;0.10;;;;;;;;;;4962448;28;20049;-94
2021/12/11 00:30:46;;;;;;;0.10;0.10;;;;;;;;;;4961300;28;20046;-93
2021/12/11 00:33:42;;;;;;;0.10;0.10;;;;;;;;;;4962009;28;20086;-93
2021/12/11 00:36:09;;;;;;;0.10;0.10;;;;;;;;;;4991968;28;20042;-92
2021/12/11 00:38:35;;;;;;;0.10;0.10;;;;;;;;;;4961603;28;20049;-93
2021/12/11 00:41:02;;;;;;;0.10;0.10;;;;;;;;;;4961982;28;20213;-93
2021/12/11 00:43:30;;;;;;;0.10;0.10;;;;;;;;;;4961632;28;20485;-93
2021/12/11 00:45:57;;;;;;;0.10;0.10;;;;;;;;;;4994163;28;20050;-93
2021/12/11 00:48:23;;;;;;;0.10;0.10;;;;;;;;;;4962166;28;20096;-95
2021/12/11 00:50:50;;;;;;;0.10;0.10;;;;;;;;;;4961795;28;20088;-94
2021/12/11 00:53:25;;;;;;;0.10;0.10;;;;;;;;;;4962421;28;20132;-95
2021/12/11 00:55:56;;;;;;;0.10;0.10;;;;;;;;;;4961664;28;20038;-93
2021/12/11 00:58:23;;;;;;;0.10;0.10;;;;;;;;;;4978381;28;20460;-93
2021/12/11 01:01:07;;;;;;;0.10;0.10;;;;;;;;;;4962240;28;20042;-92
2021/12/11 01:03:45;;;;;;;0.10;0.10;;;;;;;;;;4977240;28;20504;-92
2021/12/11 01:06:21;;;;;;;0.10;0.10;;;;;;;;;;4993219;28;20140;-93
2021/12/11 01:08:56;;;;;;;0.10;0.10;;;;;;;;;;4977585;28;20548;-94
2021/12/11 01:11:33;;;;;;;0.10;0.10;;;;;;;;;;4977738;28;20057;-93
2021/12/11 01:14:11;;;;;;;0.10;0.10;;;;;;;;;;4961820;28;20042;-93
2021/12/11 01:16:37;;;;;;;0.10;0.10;;;;;;;;;;4962819;28;20439;-92
2021/12/11 01:19:04;;;;;;;0.10;0.10;;;;;;;;;;4961010;28;20042;-94
2021/12/11 01:21:44;;;;;;;0.10;0.10;;;;;;;;;;4977384;28;20054;-93
2021/12/11 01:24:41;;;;;;;0.08;0.08;;;;;;;;;;4962853;28;20058;-92
2021/12/11 01:27:07;;;;;;;0.15;0.15;;;;;;;;;;4980191;28;20054;-92
2021/12/11 01:29:34;;;;;;;0.10;0.10;;;;;;;;;;4977426;28;20077;-93
2021/12/11 01:32:00;;;;;;;0.10;0.10;;;;;;;;;;4992805;28;20089;-92
2021/12/11 01:34:26;;;;;;;0.10;0.10;;;;;;;;;;4976640;28;20570;-92
2021/12/11 01:36:52;;;;;;;0.10;0.10;;;;;;;;;;4976785;28;20557;-93
2021/12/11 01:39:19;;;;;;;0.10;0.10;;;;;;;;;;4976742;28;20508;-92
2021/12/11 01:41:46;;;;;;;0.10;0.10;;;;;;;;;;4960855;28;20078;-93
2021/12/11 01:44:16;;;;;;;0.10;0.10;;;;;;;;;;4960771;28;20046;-92
2021/12/11 01:46:42;;;;;;;0.10;0.10;;;;;;;;;;4960473;28;20038;-92
2021/12/11 01:49:15;;;;;;;0.10;0.10;;;;;;;;;;4960418;28;20265;-91
2021/12/11 01:51:44;;;;;;;0.10;0.10;;;;;;;;;;4976220;28;20108;-92
2021/12/11 01:54:23;;;;;;;0.10;0.10;;;;;;;;;;4960420;28;20042;-93
2021/12/11 01:56:53;;;;;;;0.20;0.20;;;;;;;;;;4960782;28;20073;-92
2021/12/11 01:59:25;;;;;;;0.10;0.10;;;;;;;;;;4977090;28;20100;-91
2021/12/11 02:02:17;;;;;;;0.10;0.10;;;;;;;;;;4992155;28;20138;-91
2021/12/11 02:04:44;;;;;;;0.10;0.10;;;;;;;;;;4973423;28;20050;-93
2021/12/11 02:07:12;;;;;;;0.10;0.10;;;;;;;;;;4960797;28;20046;-92
2021/12/11 02:09:38;;;;;;;0.10;0.10;;;;;;;;;;4976819;28;20042;-93
2021/12/11 02:12:17;;;;;;;0.10;0.10;;;;;;;;;;4976385;28;20042;-91
2021/12/11 02:14:47;;;;;;;0.10;0.10;;;;;;;;;;4976731;28;20066;-94
2021/12/11 02:17:14;;;;;;;0.10;0.10;;;;;;;;;;4960877;28;20046;-93
2021/12/11 02:19:40;;;;;;;0.10;0.10;;;;;;;;;;4960834;28;20088;-93
2021/12/11 02:22:08;;;;;;;0.10;0.10;;;;;;;;;;4976875;28;20054;-93
2021/12/11 02:24:35;;;;;;;0.10;0.10;;;;;;;;;;4960265;28;20101;-92
2021/12/11 02:27:01;;;;;;;0.10;0.10;;;;;;;;;;4992761;28;20038;-92
2021/12/11 02:29:28;;;;;;;0.10;0.10;;;;;;;;;;4976292;28;20125;-92
2021/12/11 02:32:00;;;;;;;0.10;0.10;;;;;;;;;;4962804;28;20054;-93
2021/12/11 02:34:46;;;;;;;0.10;0.10;;;;;;;;;;4980848;28;20050;-93
2021/12/11 02:37:17;;;;;;;0.10;0.10;;;;;;;;;;4996334;28;20096;-92
2021/12/11 02:39:46;;;;;;;0.10;0.10;;;;;;;;;;4979945;28;20042;-93
2021/12/11 02:42:18;;;;;;;0.10;0.10;;;;;;;;;;4980325;28;20166;-92
2021/12/11 02:44:50;;;;;;;0.10;0.10;;;;;;;;;;4979737;28;20035;-91
2021/12/11 02:47:22;;;;;;;0.10;0.10;;;;;;;;;;4965270;28;20049;-92
2021/12/11 02:49:50;;;;;;;0.57;0.57;;;;;;;;;;4981405;28;20048;-92
2021/12/11 02:52:18;;;;;;;0.10;0.10;;;;;;;;;;4981321;28;20031;-91
2021/12/11 02:55:03;;;;;;;0.10;0.10;;;;;;;;;;4965493;28;20041;-91
2021/12/11 02:57:34;;;;;;;0.10;0.10;;;;;;;;;;4980036;28;20468;-91
2021/12/11 03:00:20;;;;;;;0.10;0.10;;;;;;;;;;4979750;28;20038;-91
2021/12/11 03:02:48;;;;;;;0.00;0.00;;;;;;;;;;4980065;28;20042;-94
2021/12/11 03:05:16;;;;;;;0.10;0.10;;;;;;;;;;4979962;28;20125;-92
2021/12/11 03:07:50;;;;;;;0.10;0.10;;;;;;;;;;4963776;28;20105;-92
2021/12/11 03:10:16;;;;;;;0.10;0.10;;;;;;;;;;4980267;28;20156;-92
2021/12/11 03:12:44;;;;;;;0.10;0.10;;;;;;;;;;4963232;28;20137;-91
2021/12/11 03:15:10;;;;;;;0.10;0.10;;;;;;;;;;4979504;28;20046;-91
2021/12/11 03:17:36;;;;;;;0.10;0.10;;;;;;;;;;4979389;28;20038;-91
2021/12/11 03:20:02;;;;;;;0.10;0.10;;;;;;;;;;4963356;28;20042;-92
2021/12/11 03:22:30;;;;;;;0.10;0.10;;;;;;;;;;4962948;28;20417;-93
2021/12/11 03:24:56;;;;;;;0.10;0.10;;;;;;;;;;4979817;28;20047;-93
2021/12/11 03:27:22;;;;;;;0.10;0.10;;;;;;;;;;4963112;28;20039;-94
2021/12/11 03:29:48;;;;;;;0.10;0.10;;;;;;;;;;4979300;28;20557;-93
2021/12/11 03:32:14;;;;;;;0.10;0.10;;;;;;;;;;4963109;28;20090;-93
2021/12/11 03:34:40;;;;;;;0.10;0.10;;;;;;;;;;4979763;28;20425;-94
2021/12/11 03:37:08;;;;;;;0.10;0.10;;;;;;;;;;4979012;28;20087;-94
2021/12/11 03:39:35;;;;;;;0.10;0.10;;;;;;;;;;4979493;28;20042;-92
2021/12/11 03:42:03;;;;;;;0.08;0.08;;;;;;;;;;4961772;28;20038;-94
2021/12/11 03:44:33;;;;;;;0.00;0.00;;;;;;;;;;4963047;28;20050;-94
2021/12/11 03:46:59;;;;;;;0.10;0.10;;;;;;;;;;4962737;28;20062;-95
2021/12/11 03:49:25;;;;;;;0.05;0.05;;;;;;;;;;4979141;28;20109;-94
2021/12/11 03:51:51;;;;;;;0.10;0.10;;;;;;;;;;4978761;28;20046;-94
2021/12/11 03:54:22;;;;;;;0.10;0.10;;;;;;;;;;4963680;28;20474;-95
2021/12/11 03:56:48;;;;;;;0.10;0.10;;;;;;;;;;4978081;28;20109;-94
2021/12/11 03:59:14;;;;;;;0.10;0.10;;;;;;;;;;4979012;28;20042;-93
2021/12/11 04:01:43;;;;;;;0.10;0.10;;;;;;;;;;4978861;28;20547;-93
2021/12/11 04:04:14;;;;;;;0.10;0.10;;;;;;;;;;4978675;28;20050;-91
2021/12/11 04:06:40;;;;;;;0.10;0.10;;;;;;;;;;4995373;28;20049;-93
2021/12/11 04:09:07;;;;;;;0.10;0.10;;;;;;;;;;4978598;28;20046;-94
2021/12/11 04:11:33;;;;;;;0.10;0.10;;;;;;;;;;4962761;28;20066;-91
2021/12/11 04:14:00;;;;;;;0.10;0.10;;;;;;;;;;4978537;28;20130;-93
2021/12/11 04:16:26;;;;;;;0.10;0.10;;;;;;;;;;4962432;28;20049;-93
2021/12/11 04:18:53;;;;;;;0.10;0.10;;;;;;;;;;4962703;28;20043;-92
2021/12/11 04:21:19;;;;;;;0.10;0.10;;;;;;;;;;4962607;28;20130;-91
2021/12/11 04:23:45;;;;;;;0.10;0.10;;;;;;;;;;4978637;28;20046;-93
2021/12/11 04:26:12;;;;;;;0.20;0.20;;;;;;;;;;4978780;28;20046;-93
2021/12/11 04:28:46;;;;;;;0.10;0.10;;;;;;;;;;4962180;28;20181;-93
2021/12/11 04:31:15;;;;;;;0.10;0.10;;;;;;;;;;4962244;28;20050;-94
2021/12/11 04:33:45;;;;;;;0.10;0.10;;;;;;;;;;4978012;28;20049;-90
2021/12/11 04:36:13;;;;;;;0.10;0.10;;;;;;;;;;4978360;28;20548;-92
2021/12/11 04:38:39;;;;;;;0.00;0.00;;;;;;;;;;4978235;28;20122;-92
2021/12/11 04:41:06;;;;;;;0.10;0.10;;;;;;;;;;4961840;28;20053;-93
2021/12/11 04:43:33;;;;;;;0.10;0.10;;;;;;;;;;4961760;28;20173;-92
2021/12/11 04:46:01;;;;;;;0.10;0.10;;;;;;;;;;4978259;28;20397;-93
2021/12/11 04:48:43;;;;;;;0.10;0.10;;;;;;;;;;4962267;28;20046;-93
2021/12/11 04:51:20;;;;;;;0.05;0.05;;;;;;;;;;4962882;28;20096;-92
2021/12/11 04:54:08;;;;;;;0.10;0.10;;;;;;;;;;4962684;28;20049;-92
2021/12/11 04:56:59;;;;;;;0.10;0.10;;;;;;;;;;4964771;28;20038;-92
2021/12/11 04:59:40;;;;;;;0.00;0.00;;;;;;;;;;4993967;28;20046;-93
2021/12/11 05:07:28;;;;;;;0.10;0.10;;;;;;;;;;4978935;28;20180;-92
2021/12/11 05:10:12;;;;;;;0.10;0.10;;;;;;;;;;4962935;28;20042;-93
2021/12/11 05:12:38;;;;;;;0.10;0.10;;;;;;;;;;4977272;28;20038;-92
2021/12/11 05:15:06;;;;;;;0.10;0.10;;;;;;;;;;4977196;28;20129;-92
2021/12/11 05:17:32;;;;;;;0.10;0.10;;;;;;;;;;4993736;28;20398;-93
2021/12/11 05:19:58;;;;;;;0.10;0.10;;;;;;;;;;4977614;28;20045;-93
2021/12/11 05:22:24;;;;;;;0.10;0.10;;;;;;;;;;4977614;28;20046;-93
2021/12/11 05:24:52;;;;;;;4.18;0.35;;;;;;;;;;4961576;28;20069;-94
2021/12/11 05:27:18;;;;;;;0.10;0.10;;;;;;;;;;4962172;28;20038;-92
2021/12/11 05:29:44;;;;;;;0.10;0.10;;;;;;;;;;4977571;28;20045;-92
2021/12/11 05:32:13;;;;;;;0.10;0.10;;;;;;;;;;4960867;28;20066;-94
2021/12/11 05:34:42;;;;;;;0.10;0.10;;;;;;;;;;4977635;28;20054;-94
2021/12/11 05:37:12;;;;;;;0.10;0.10;;;;;;;;;;4963094;28;20437;-92
2021/12/11 05:39:38;;;;;;;0.10;0.10;;;;;;;;;;4976581;28;20490;-92
2021/12/11 05:42:04;;;;;;;0.10;0.10;;;;;;;;;;4960627;28;20049;-92
2021/12/11 05:44:30;;;;;;;0.10;0.10;;;;;;;;;;4960844;28;20046;-92
2021/12/11 05:46:56;;;;;;;0.10;0.10;;;;;;;;;;4960697;28;20500;-92
2021/12/11 05:49:23;;;;;;;0.10;0.10;;;;;;;;;;4960573;28;20038;-92
2021/12/11 05:51:51;;;;;;;0.10;0.10;;;;;;;;;;4976548;28;20042;-93
2021/12/11 05:54:22;;;;;;;0.10;0.10;;;;;;;;;;4960509;28;20121;-94
2021/12/11 05:56:48;;;;;;;0.10;0.10;;;;;;;;;;4976941;28;20153;-94
2021/12/11 05:59:15;;;;;;;0.10;0.10;;;;;;;;;;4960630;28;20201;-95
2021/12/11 06:01:45;;;;;;;0.10;0.10;;;;;;;;;;4977242;28;20045;-95
2021/12/11 06:04:13;;;;;;;0.10;0.10;;;;;;;;;;4977161;28;20117;-94
2021/12/11 06:06:40;;;;;;;0.10;0.10;;;;;;;;;;4976304;28;20582;-94
2021/12/11 06:09:06;;;;;;;0.10;0.10;;;;;;;;;;4976973;28;20038;-94
2021/12/11 06:11:32;;;;;;;0.32;0.32;;;;;;;;;;4978951;28;20400;-94
2021/12/11 06:13:58;;;;;;;0.10;0.10;;;;;;;;;;4981201;28;20125;-94
2021/12/11 06:16:27;;;;;;;0.10;0.10;;;;;;;;;;4967762;28;20034;-94
2021/12/11 06:18:54;;;;;;;0.10;0.10;;;;;;;;;;4967534;28;20097;-94
2021/12/11 06:21:20;;;;;;;0.10;0.10;;;;;;;;;;4965342;28;20572;-92
2021/12/11 06:23:46;;;;;;;0.10;0.10;;;;;;;;;;4977574;28;20129;-93
2021/12/11 06:26:12;;;;;;;0.10;0.10;;;;;;;;;;4978902;28;20046;-92
2021/12/11 06:28:41;;;;;;;0.10;0.10;;;;;;;;;;4963699;28;20069;-94
2021/12/11 06:31:07;;;;;;;0.10;0.10;;;;;;;;;;4963160;28;20451;-93
2021/12/11 06:33:33;;;;;;;0.10;0.10;;;;;;;;;;4961042;28;20504;-91
2021/12/11 06:36:10;;;;;;;0.10;0.10;;;;;;;;;;4976254;28;20049;-93
2021/12/11 06:38:39;;;;;;;0.10;0.10;;;;;;;;;;4976550;28;20483;-93
2021/12/11 06:41:06;;;;;;;0.10;0.10;;;;;;;;;;4976215;28;20081;-91
2021/12/11 06:43:32;;;;;;;0.10;0.10;;;;;;;;;;4976086;28;20050;-91
2021/12/11 06:45:58;;;;;;;0.10;0.10;;;;;;;;;;4976240;28;20061;-91
2021/12/11 06:48:24;;;;;;;0.10;0.10;;;;;;;;;;4959997;28;20497;-92
2021/12/11 06:50:50;;;;;;;0.10;0.10;;;;;;;;;;4976370;28;20052;-91
2021/12/11 06:53:19;;;;;;;0.10;0.10;;;;;;;;;;4960270;28;20474;-92
2021/12/11 06:55:45;;;;;;;0.10;0.10;;;;;;;;;;4963672;28;20049;-92
2021/12/11 06:58:11;;;;;;;0.20;0.20;;;;;;;;;;4963550;28;20038;-92
2021/12/11 07:00:37;;;;;;;0.10;0.10;;;;;;;;;;4963836;28;20050;-92
2021/12/11 07:03:05;;;;;;;0.10;0.10;;;;;;;;;;4963149;28;20113;-93
2021/12/11 07:05:31;;;;;;;0.10;0.10;;;;;;;;;;4963773;28;20136;-91
2021/12/11 07:07:58;;;;;;;0.10;0.10;;;;;;;;;;4962851;28;20042;-91
2021/12/11 07:10:24;;;;;;;0.10;0.10;;;;;;;;;;4963021;28;20572;-91
2021/12/11 07:12:50;;;;;;;0.10;0.10;;;;;;;;;;4978763;28;20063;-91
2021/12/11 07:15:17;;;;;;;0.08;0.08;;;;;;;;;;4978679;28;20101;-93
2021/12/11 07:17:43;;;;;;;0.10;0.10;;;;;;;;;;4981490;28;20046;-91
2021/12/11 07:20:10;;;;;;;0.10;0.10;;;;;;;;;;4995547;28;20034;-92
2021/12/11 07:22:36;;;;;;;0.10;0.10;;;;;;;;;;4963062;28;20537;-93
2021/12/11 07:25:10;;;;;;;0.10;0.10;;;;;;;;;;4979490;28;20088;-93
2021/12/11 07:27:36;;;;;;;0.10;0.10;;;;;;;;;;4963257;28;20427;-92
2021/12/11 07:30:04;;;;;;;0.03;0.03;;;;;;;;;;4962749;28;20173;-93
2021/12/11 07:32:30;;;;;;;0.10;0.10;;;;;;;;;;4962900;28;20046;-92
2021/12/11 07:34:59;;;;;;;0.10;0.10;;;;;;;;;;4979557;28;20490;-96
2021/12/11 07:37:25;;;;;;;0.10;0.10;;;;;;;;;;4979219;28;20070;-89
2021/12/11 07:39:51;;;;;;;0.10;0.10;;;;;;;;;;4978828;28;20046;-89
2021/12/11 07:42:17;;;;;;;1.35;0.43;;;;;;;;;;4994551;28;20103;-91
2021/12/11 07:44:43;;;;;;;0.10;0.10;;;;;;;;;;4962422;28;20085;-88
2021/12/11 07:47:09;;;;;;;0.10;0.10;;;;;;;;;;4994534;28;20038;-89
2021/12/11 07:49:35;;;;;;;0.10;0.10;;;;;;;;;;4978832;28;20482;-91
2021/12/11 07:52:01;;;;;;;0.10;0.10;;;;;;;;;;4962432;28;20043;-92
2021/12/11 07:54:28;;;;;;;0.00;0.00;;;;;;;;;;4978616;28;20042;-90
2021/12/11 07:56:54;;;;;;;0.20;0.20;;;;;;;;;;4962385;28;20038;-92
2021/12/11 07:59:23;;;;;;;0.10;0.10;;;;;;;;;;4978282;28;20074;-91
2021/12/11 08:01:49;;;;;;;0.10;0.10;;;;;;;;;;4978528;28;20393;-89
2021/12/11 08:04:15;;;;;;;0.10;0.10;;;;;;;;;;4961761;28;20481;-88
2021/12/11 08:06:41;;;;;;;0.10;0.10;;;;;;;;;;4977617;28;20138;-89
2021/12/11 08:09:08;;;;;;;0.10;0.10;;;;;;;;;;4962220;28;20065;-91
2021/12/11 08:11:35;;;;;;;0.10;0.10;;;;;;;;;;4961849;28;20564;-90
2021/12/11 08:14:01;;;;;;;0.10;0.10;;;;;;;;;;4977752;28;20094;-89
2021/12/11 08:16:32;;;;;;;0.13;0.13;;;;;;;;;;4961956;28;20248;-90
2021/12/11 08:18:59;;;;;;;0.10;0.10;;;;;;;;;;4963697;28;20077;-91
2021/12/11 08:21:25;;;;;;;0.10;0.10;;;;;;;;;;4976614;28;20085;-91
2021/12/11 08:23:54;;;;;;;0.10;0.10;;;;;;;;;;4977967;28;20042;-91
2021/12/11 08:26:21;;;;;;;0.10;0.10;;;;;;;;;;4962005;28;20133;-92
2021/12/11 08:28:48;;;;;;;0.10;0.10;;;;;;;;;;4977000;28;20046;-90
2021/12/11 08:31:14;;;;;;;0.10;0.10;;;;;;;;;;4961725;28;20133;-91
2021/12/11 08:33:40;;;;;;;0.00;0.00;;;;;;;;;;4961662;28;20089;-89
2021/12/11 08:36:06;;;;;;;0.00;0.00;;;;;;;;;;4961172;28;20042;-88
2021/12/11 08:38:33;;;;;;;0.10;0.10;;;;;;;;;;4977475;28;20389;-92
2021/12/11 08:40:59;;;;;;;0.10;0.10;;;;;;;;;;4961822;28;20419;-89
2021/12/11 08:43:25;;;;;;;0.10;0.10;;;;;;;;;;4977146;28;20057;-92
2021/12/11 08:48:51;;;;;;;1.00;0.57;;;;;;;;;;4939221;28;20065;-88
2021/12/11 08:51:25;;;;;;;0.10;0.10;;;;;;;;;;4976580;28;20034;-88
2021/12/11 08:53:51;;;;;;;0.10;0.10;;;;;;;;;;4976390;28;20046;-87
2021/12/11 08:56:17;;;;;;;0.10;0.10;;;;;;;;;;4960405;28;20042;-89
2021/12/11 08:58:43;;;;;;;0.00;0.00;;;;;;;;;;4960208;28;20038;-92
2021/12/11 09:01:11;;;;;;;0.10;0.10;;;;;;;;;;4961098;28;20050;-91
2021/12/11 09:03:39;;;;;;;0.10;0.10;;;;;;;;;;4960778;28;20055;-91
2021/12/11 09:06:12;;;;;;;0.10;0.10;;;;;;;;;;4976881;28;20540;-90
2021/12/11 09:08:42;;;;;;;0.10;0.10;;;;;;;;;;4977016;28;20134;-89
2021/12/11 09:11:29;;;;;;;0.10;0.10;;;;;;;;;;4976306;28;20042;-91
2021/12/11 09:14:21;;;;;;;0.10;0.10;;;;;;;;;;4975657;28;20366;-90
2021/12/11 09:16:52;;;;;;;0.10;0.10;;;;;;;;;;4973537;28;20046;-89
2021/12/11 09:19:20;;;;;;;0.00;0.00;;;;;;;;;;4959923;28;20153;-90
2021/12/11 09:21:48;;;;;;;0.10;0.10;;;;;;;;;;4976154;28;20050;-91
2021/12/11 09:24:18;;;;;;;0.10;0.10;;;;;;;;;;4959745;28;20042;-89
2021/12/11 09:26:49;;;;;;;0.10;0.10;;;;;;;;;;4952817;28;20046;-88
2021/12/11 09:29:21;;;;;;;0.52;0.52;;;;;;;;;;4956182;28;20042;-90
2021/12/11 09:31:47;;;;;;;;;;;;;;;;;;4940856;28;20516;-88
2021/12/11 09:34:18;;;;;;;0.17;0.17;;;;;;;;;;4956103;28;19921;-88
2021/12/11 09:36:47;;;;;;;0.10;0.10;;;;;;;;;;4940554;28;20042;-88
2021/12/11 09:39:17;;;;;;;0.10;0.10;;;;;;;;;;4956052;28;20142;-87
2021/12/11 09:41:43;;;;;;;0.10;0.10;;;;;;;;;;4939931;28;20513;-85
2021/12/11 09:44:10;;;;;;;0.10;0.10;;;;;;;;;;4971972;28;20043;-87
2021/12/11 09:46:42;;;;;;;0.00;0.00;;;;;;;;;;4956107;28;20528;-94
2021/12/11 09:49:09;;;;;;;0.10;0.10;;;;;;;;;;4956161;28;20053;-91
2021/12/11 09:51:38;;;;;;;0.08;0.08;;;;;;;;;;4955887;28;20514;-89
2021/12/11 09:54:07;;;;;;;0.00;0.00;;;;;;;;;;4940341;28;20505;-90
2021/12/11 09:56:44;;;;;;;0.10;0.10;;;;;;;;;;4956230;28;20122;-89
2021/12/11 09:59:10;;;;;;;0.10;0.10;;;;;;;;;;4941674;28;20054;-90
2021/12/11 10:01:38;;;;;;;0.10;0.10;;;;;;;;;;4975278;28;20045;-91
2021/12/11 10:04:05;;;;;;;0.00;0.00;;;;;;;;;;4975614;28;20057;-91
2021/12/11 10:06:52;;;;;;;0.00;0.00;;;;;;;;;;4972113;28;20082;-89
2021/12/11 10:09:22;;;;;;;0.00;0.00;;;;;;;;;;4942543;28;20047;-89
2021/12/11 10:11:53;;;;;;;0.00;0.00;;;;;;;;;;4939812;28;20047;-87
2021/12/11 10:14:20;;;;;;;0.10;0.10;;;;;;;;;;4955769;28;20034;-88
2021/12/11 10:16:47;;;;;;;0.08;0.08;;;;;;;;;;4946760;28;20053;-89
2021/12/11 10:19:13;;;;;;;0.00;0.00;;;;;;;;;;4975305;28;20129;-89
2021/12/11 10:21:41;;;;;;;0.08;0.08;;;;;;;;;;4974945;28;20173;-89
2021/12/11 10:24:09;;;;;;;0.00;0.00;;;;;;;;;;4974833;28;20054;-89
2021/12/11 10:26:35;;;;;;;0.00;0.00;;;;;;;;;;4975067;28;20038;-88
2021/12/11 10:29:02;;;;;;;0.00;0.00;;;;;;;;;;4975398;28;20100;-92
2021/12/11 10:31:29;;;;;;;0.10;0.10;;;;;;;;;;4974676;28;20367;-90
2021/12/11 10:33:59;;;;;;;0.00;0.00;;;;;;;;;;4991080;28;20133;-89
2021/12/11 10:36:26;;;;;;;0.08;0.08;;;;;;;;;;4975340;28;20125;-90
2021/12/11 10:38:52;;;;;;;0.00;0.00;;;;;;;;;;4974883;28;20038;-89
2021/12/11 10:41:19;;;;;;;0.00;0.00;;;;;;;;;;4974693;28;20049;-89
2021/12/11 10:43:53;;;;;;;0.00;0.00;;;;;;;;;;4974851;28;20038;-90
2021/12/11 10:46:19;;;;;;;0.00;0.00;;;;;;;;;;4974971;28;20038;-90
2021/12/11 10:48:46;;;;;;;0.00;0.00;;;;;;;;;;4975244;28;20488;-92
2021/12/11 10:51:20;;;;;;;0.10;0.10;;;;;;;;;;4975208;28;20129;-90
2021/12/11 10:53:46;;;;;;;0.00;0.00;;;;;;;;;;4979638;28;20049;-90
2021/12/11 10:56:13;;;;;;;0.00;0.00;;;;;;;;;;4978457;28;20042;-91
2021/12/11 10:58:40;;;;;;;0.00;0.00;;;;;;;;;;4978525;28;20038;-89
2021/12/11 11:01:06;;;;;;;0.10;0.10;;;;;;;;;;4978315;28;20054;-89
2021/12/11 11:03:33;;;;;;;0.00;0.00;;;;;;;;;;4978269;28;20468;-90
2021/12/11 11:05:59;;;;;;;0.00;0.00;;;;;;;;;;4978142;28;20042;-89
2021/12/11 11:08:25;;;;;;;0.10;0.10;;;;;;;;;;4978206;28;20049;-89
2021/12/11 11:10:52;;;;;;;0.00;0.00;;;;;;;;;;4978064;28;20517;-90
2021/12/11 11:13:19;;;;;;;0.10;0.10;;;;;;;;;;4980656;28;20096;-88
2021/12/11 11:15:45;;;;;;;0.32;0.32;;;;;;;;;;4984121;28;20073;-89
2021/12/11 11:18:12;;;;;;;0.08;0.08;;;;;;;;;;4980845;28;20365;-88
2021/12/11 11:20:40;;;;;;;0.00;0.00;;;;;;;;;;4997893;28;20042;-88
2021/12/11 11:23:06;;;;;;;0.00;0.00;;;;;;;;;;5001499;28;20061;-88
2021/12/11 11:25:33;;;;;;;0.00;0.00;;;;;;;;;;4978332;28;20042;-86
2021/12/11 11:28:04;;;;;;;0.00;0.00;;;;;;;;;;4977726;28;20050;-87
2021/12/11 11:30:32;;;;;;;0.55;0.55;;;;;;;;;;4977701;28;20120;-88
2021/12/11 11:32:58;;;;;;;0.08;0.08;;;;;;;;;;4977688;28;20167;-87
2021/12/11 11:35:25;;;;;;;0.00;0.00;;;;;;;;;;4993772;28;20042;-87
2021/12/11 11:37:51;;;;;;;0.00;0.00;;;;;;;;;;4977618;28;20044;-87
2021/12/11 11:40:19;;;;;;;0.20;0.20;;;;;;;;;;4993556;28;20512;-88
2021/12/11 11:42:45;;;;;;;0.52;0.52;;;;;;;;;;4993702;28;20038;-88
2021/12/11 11:45:12;;;;;;;0.13;0.13;;;;;;;;;;4977505;28;20042;-88
2021/12/11 11:47:38;;;;;;;0.10;0.10;;;;;;;;;;4978063;28;20145;-89
2021/12/11 11:50:06;;;;;;;0.10;0.10;;;;;;;;;;4977508;28;20045;-89
2021/12/11 11:52:33;;;;;;;0.00;0.00;;;;;;;;;;4977368;28;20094;-87
2021/12/11 11:55:00;;;;;;;0.00;0.00;;;;;;;;;;4977220;28;20038;-88
2021/12/11 11:57:30;;;;;;;0.00;0.00;;;;;;;;;;4977426;28;20047;-86
2021/12/11 11:59:56;;;;;;;0.00;0.00;;;;;;;;;;4977165;28;20030;-88
2021/12/11 12:02:23;;;;;;;0.10;0.10;;;;;;;;;;4993023;28;20188;-87
2021/12/11 12:04:50;;;;;;;0.10;0.10;;;;;;;;;;4992567;28;20054;-90
2021/12/11 12:07:18;;;;;;;0.00;0.00;;;;;;;;;;4976792;28;20057;-87
2021/12/11 12:09:46;;;;;;;0.10;0.10;;;;;;;;;;4993255;28;20042;-88
2021/12/11 12:12:13;;;;;;;0.10;0.10;;;;;;;;;;4977503;28;20046;-91
2021/12/11 12:14:39;;;;;;;0.00;0.00;;;;;;;;;;4977090;28;20125;-88
2021/12/11 12:17:05;;;;;;;0.00;0.00;;;;;;;;;;4976947;28;20081;-88
2021/12/11 12:19:31;;;;;;;0.00;0.00;;;;;;;;;;4993231;28;20094;-88
2021/12/11 12:21:58;;;;;;;0.10;0.10;;;;;;;;;;4977182;28;20046;-88
2021/12/11 12:24:25;;;;;;;0.00;0.00;;;;;;;;;;4977000;28;20046;-87
2021/12/11 12:26:51;;;;;;;0.00;0.00;;;;;;;;;;4976878;28;20046;-87
2021/12/11 12:29:17;;;;;;;0.10;0.10;;;;;;;;;;4976922;28;20501;-87
2021/12/11 12:31:51;;;;;;;0.10;0.10;;;;;;;;;;4976324;28;20132;-87
2021/12/11 12:34:17;;;;;;;0.22;0.22;;;;;;;;;;4976828;28;20405;-87
2021/12/11 12:36:45;;;;;;;0.10;0.10;;;;;;;;;;4977048;28;20038;-87
2021/12/11 12:39:12;;;;;;;0.05;0.05;;;;;;;;;;4992901;28;20043;-87
2021/12/11 12:41:40;;;;;;;0.55;0.55;;;;;;;;;;4976477;28;20478;-88
2021/12/11 12:46:41;;;;;;;0.00;0.00;;;;;;;;;;4976855;28;20065;-88
2021/12/11 12:49:07;;;;;;;0.00;0.00;;;;;;;;;;4976471;28;20423;-88
2021/12/11 12:51:33;;;;;;;0.10;0.10;;;;;;;;;;4976260;28;20265;-87
2021/12/11 12:53:59;;;;;;;0.10;0.10;;;;;;;;;;4992467;28;20034;-87
2021/12/11 12:56:30;;;;;;;0.00;0.00;;;;;;;;;;4976347;28;20042;-88
2021/12/11 12:59:05;;;;;;;0.00;0.00;;;;;;;;;;4976466;28;20442;-89
2021/12/11 13:01:33;;;;;;;0.05;0.05;;;;;;;;;;4975980;28;20130;-91
2021/12/11 13:04:03;;;;;;;0.20;0.20;;;;;;;;;;4992504;28;20054;-88
2021/12/11 13:06:30;;;;;;;0.00;0.00;;;;;;;;;;4975870;28;20093;-88
2021/12/11 13:09:20;;;;;;;0.10;0.10;;;;;;;;;;4976095;28;20050;-88
2021/12/11 13:11:47;;;;;;;0.00;0.00;;;;;;;;;;4963558;28;20058;-88
2021/12/11 13:14:13;;;;;;;0.08;0.08;;;;;;;;;;4976025;28;20038;-88
2021/12/11 13:16:41;;;;;;;0.08;0.08;;;;;;;;;;4976134;28;20064;-88
2021/12/11 13:19:11;;;;;;;0.00;0.00;;;;;;;;;;4976065;28;20194;-88
2021/12/11 13:21:45;;;;;;;0.10;0.10;;;;;;;;;;4975844;28;20046;-88
2021/12/11 13:24:14;;;;;;;0.00;0.00;;;;;;;;;;4975669;28;20442;-88
2021/12/11 13:26:40;;;;;;;0.00;0.00;;;;;;;;;;4975888;28;20048;-88
2021/12/11 13:29:08;;;;;;;0.00;0.00;;;;;;;;;;4975818;28;20140;-88
2021/12/11 13:31:36;;;;;;;0.00;0.00;;;;;;;;;;4975358;28;20141;-88
2021/12/11 13:34:04;;;;;;;0.00;0.00;;;;;;;;;;4975595;28;20125;-87
2021/12/11 13:36:30;;;;;;;0.00;0.00;;;;;;;;;;4975622;28;20046;-90
2021/12/11 13:38:57;;;;;;;0.10;0.10;;;;;;;;;;4975497;28;20044;-90
2021/12/11 13:41:33;;;;;;;0.00;0.00;;;;;;;;;;4976431;28;20129;-90
2021/12/11 13:43:59;;;;;;;0.00;0.00;;;;;;;;;;4975827;28;20038;-90
2021/12/11 13:46:25;;;;;;;0.00;0.00;;;;;;;;;;4975913;28;20069;-91
2021/12/11 13:48:51;;;;;;;0.05;0.05;;;;;;;;;;4976344;28;20093;-93
2021/12/11 13:51:21;;;;;;;0.05;0.05;;;;;;;;;;4975451;28;20046;-89
2021/12/11 13:53:47;;;;;;;0.10;0.10;;;;;;;;;;4975482;28;20413;-88
2021/12/11 13:56:14;;;;;;;0.00;0.00;;;;;;;;;;4975239;28;20092;-89
2021/12/11 13:58:40;;;;;;;0.00;0.00;;;;;;;;;;4975499;28;20046;-89
2021/12/11 14:01:10;;;;;;;0.00;0.00;;;;;;;;;;4975310;28;20129;-89
2021/12/11 14:03:36;;;;;;;0.00;0.00;;;;;;;;;;4975748;28;20047;-88
2021/12/11 14:06:04;;;;;;;0.05;0.05;;;;;;;;;;4975039;28;20053;-89
2021/12/11 14:08:31;;;;;;;0.00;0.00;;;;;;;;;;4975649;28;20420;-89
2021/12/11 14:10:57;;;;;;;0.00;0.00;;;;;;;;;;4975480;28;20050;-92
2021/12/11 14:13:23;;;;;;;0.00;0.00;;;;;;;;;;4977171;28;20038;-93
2021/12/11 14:15:50;;;;;;;0.05;0.05;;;;;;;;;;4976291;28;20045;-94
2021/12/11 14:18:16;;;;;;;0.00;0.00;;;;;;;;;;4976530;28;20046;-91
2021/12/11 14:20:42;;;;;;;0.00;0.00;;;;;;;;;;4975640;28;20061;-93
2021/12/11 14:23:09;;;;;;;0.10;0.10;;;;;;;;;;4975592;28;20121;-92
2021/12/11 14:25:35;;;;;;;0.00;0.00;;;;;;;;;;4975525;28;20053;-91
2021/12/11 14:28:02;;;;;;;0.00;0.00;;;;;;;;;;4979213;28;20100;-92
2021/12/11 14:30:28;;;;;;;0.10;0.10;;;;;;;;;;4979127;28;20563;-91
2021/12/11 14:32:54;;;;;;;0.10;0.10;;;;;;;;;;4978908;28;20058;-90
2021/12/11 14:35:21;;;;;;;0.10;0.10;;;;;;;;;;4979339;28;20190;-91
2021/12/11 14:37:47;;;;;;;0.00;0.00;;;;;;;;;;4979911;28;20034;-93
2021/12/11 14:40:15;;;;;;;0.00;0.00;;;;;;;;;;4995994;28;20108;-93
2021/12/11 14:42:41;;;;;;;0.10;0.10;;;;;;;;;;4979418;28;20045;-93
2021/12/11 14:45:09;;;;;;;0.00;0.00;;;;;;;;;;4979679;28;20046;-93
2021/12/11 14:47:35;;;;;;;0.00;0.00;;;;;;;;;;4979416;28;20438;-90
2021/12/11 14:50:01;;;;;;;0.00;0.00;;;;;;;;;;4978990;28;20042;-91
2021/12/11 14:52:27;;;;;;;0.10;0.10;;;;;;;;;;4978899;28;20066;-92
2021/12/11 14:54:54;;;;;;;0.10;0.10;;;;;;;;;;4978774;28;20068;-92
2021/12/11 14:57:20;;;;;;;0.10;0.10;;;;;;;;;;4978413;28;20043;-88
2021/12/11 14:59:48;;;;;;;0.35;0.10;;;;;;;;;;4979084;28;20049;-90
2021/12/11 15:02:19;;;;;;;0.00;0.00;;;;;;;;;;4979050;28;20050;-91